createdAt,value
2018-08-30T00:01:17.657Z,100456.20
2018-08-30T00:03:48.133Z,100457.70
2018-08-30T00:06:18.716Z,100459.33
2018-08-30T00:08:49.256Z,100454.10
2018-08-30T00:11:19.953Z,100463.27
2018-08-30T00:13:50.491Z,100459.05
2018-08-30T00:16:21.052Z,100459.46
2018-08-30T00:18:51.320Z,100464.49
2018-08-30T00:21:21.776Z,100459.08
2018-08-30T00:23:52.336Z,100459.10
2018-08-30T00:26:22.836Z,100462.77
2018-08-30T00:28:53.342Z,100472.33
2018-08-30T00:31:23.702Z,100470.74
2018-08-30T00:33:54.067Z,100469.02
2018-08-30T00:36:24.396Z,100478.09
2018-08-30T00:38:54.892Z,100474.39
2018-08-30T00:41:25.498Z,100487.91
2018-08-30T00:43:56.017Z,100482.34
2018-08-30T00:46:26.255Z,100490.42
2018-08-30T00:48:56.627Z,100489.83
2018-08-30T00:51:27.044Z,100489.96
2018-08-30T00:53:57.280Z,100488.20
2018-08-30T00:56:27.678Z,100489.38
2018-08-30T00:58:58.119Z,100496.42
2018-08-30T01:01:29.052Z,100501.95
2018-08-30T01:03:59.644Z,100512.22
2018-08-30T01:09:06.088Z,100509.86
2018-08-30T01:11:36.757Z,100516.66
2018-08-30T01:14:07.200Z,100519.29
2018-08-30T01:16:37.723Z,100525.66
2018-08-30T01:19:08.164Z,100539.55
2018-08-30T01:21:38.500Z,100542.08
2018-08-30T01:24:08.912Z,100549.01
2018-08-30T01:26:39.545Z,100546.73
2018-08-30T01:29:10.068Z,100543.28
2018-08-30T01:31:40.618Z,100546.84
2018-08-30T01:34:13.170Z,100546.67
2018-08-30T01:36:44.595Z,100551.63
2018-08-30T01:39:15.201Z,100550.27
2018-08-30T01:41:45.707Z,100549.95
2018-08-30T01:44:16.043Z,100551.06
2018-08-30T01:46:46.439Z,100554.74
2018-08-30T01:49:16.849Z,100555.18
2018-08-30T01:51:47.211Z,100556.67
2018-08-30T01:54:17.438Z,100560.44
2018-08-30T01:56:47.879Z,100559.88
2018-08-30T01:59:18.383Z,100562.37
2018-08-30T02:01:48.829Z,100568.67
2018-08-30T02:04:19.405Z,100562.05
2018-08-30T02:06:49.776Z,100556.80
2018-08-30T02:09:20.195Z,100567.00
2018-08-30T02:11:50.546Z,100566.09
2018-08-30T02:14:20.951Z,100561.55
2018-08-30T02:16:51.459Z,100560.32
2018-08-30T02:19:21.840Z,100559.20
2018-08-30T02:21:52.224Z,100562.09
2018-08-30T02:24:22.702Z,100568.98
2018-08-30T02:26:53.280Z,100577.81
2018-08-30T02:29:24.216Z,100574.06
2018-08-30T02:31:54.639Z,100584.34
2018-08-30T02:34:25.104Z,100585.59
2018-08-30T02:36:55.574Z,100594.00
2018-08-30T02:39:25.909Z,100590.81
2018-08-30T02:41:56.228Z,100594.91
2018-08-30T02:44:26.675Z,100603.55
2018-08-30T02:46:57.095Z,100611.66
2018-08-30T02:49:27.693Z,100604.02
2018-08-30T02:51:58.194Z,100606.92
2018-08-30T02:54:28.837Z,100607.02
2018-08-30T02:56:59.199Z,100610.13
2018-08-30T02:59:29.618Z,100610.98
2018-08-30T03:02:00.198Z,100611.09
2018-08-30T03:04:30.794Z,100605.75
2018-08-30T03:07:01.399Z,100611.02
2018-08-30T03:09:31.803Z,100608.16
2018-08-30T03:12:02.128Z,100610.31
2018-08-30T03:14:32.637Z,100612.94
2018-08-30T03:17:03.932Z,100612.34
2018-08-30T03:19:34.344Z,100616.02
2018-08-30T03:22:04.796Z,100618.30
2018-08-30T03:24:35.256Z,100620.08
2018-08-30T03:27:05.868Z,100619.13
2018-08-30T03:29:36.267Z,100620.33
2018-08-30T03:32:06.636Z,100617.59
2018-08-30T03:34:37.020Z,100619.05
2018-08-30T03:37:07.495Z,100618.20
2018-08-30T03:39:37.875Z,100618.44
2018-08-30T03:42:08.332Z,100627.37
2018-08-30T03:44:38.642Z,100624.99
2018-08-30T03:47:09.093Z,100630.11
2018-08-30T03:49:39.912Z,100633.44
2018-08-30T03:52:10.882Z,100625.82
2018-08-30T03:54:41.159Z,100633.80
2018-08-30T03:57:11.636Z,100640.56
2018-08-30T03:59:42.139Z,100639.29
2018-08-30T04:02:12.611Z,100644.63
2018-08-30T04:04:43.009Z,100642.48
2018-08-30T04:07:13.392Z,100639.88
2018-08-30T04:09:43.868Z,100638.44
2018-08-30T04:12:14.320Z,100644.63
2018-08-30T04:14:44.955Z,100653.22
2018-08-30T04:17:15.400Z,100651.16
2018-08-30T04:19:45.660Z,100655.47
2018-08-30T04:22:16.108Z,100656.28
2018-08-30T04:24:46.996Z,100645.72
2018-08-30T04:27:17.475Z,100659.97
2018-08-30T04:29:47.916Z,100659.39
2018-08-30T04:32:18.418Z,100652.73
2018-08-30T04:34:48.897Z,100656.66
2018-08-30T04:37:19.264Z,100662.46
2018-08-30T04:39:49.531Z,100653.38
2018-08-30T04:42:20.055Z,100659.72
2018-08-30T04:44:50.265Z,100653.87
2018-08-30T04:47:20.560Z,100660.53
2018-08-30T04:49:50.843Z,100663.58
2018-08-30T04:52:21.223Z,100665.84
2018-08-30T04:54:51.649Z,100674.17
2018-08-30T04:57:21.948Z,100677.01
2018-08-30T04:59:52.365Z,100673.89
2018-08-30T05:02:22.827Z,100684.69
2018-08-30T05:04:53.376Z,100683.91
2018-08-30T05:07:24.394Z,100690.30
2018-08-30T05:09:54.892Z,100688.34
2018-08-30T05:12:25.063Z,100685.59
2018-08-30T05:14:55.452Z,100692.39
2018-08-30T05:17:25.813Z,100690.87
2018-08-30T05:19:56.288Z,100691.28
2018-08-30T05:22:26.769Z,100693.22
2018-08-30T05:24:57.227Z,100690.19
2018-08-30T05:27:27.492Z,100699.08
2018-08-30T05:29:57.997Z,100706.89
2018-08-30T05:32:28.553Z,100701.09
2018-08-30T05:34:59.040Z,100709.27
2018-08-30T05:37:29.491Z,100711.63
2018-08-30T05:40:00.334Z,100712.73
2018-08-30T05:42:30.963Z,100720.68
2018-08-30T05:45:01.325Z,100715.61
2018-08-30T05:47:31.895Z,100718.72
2018-08-30T05:50:02.312Z,100724.44
2018-08-30T05:52:32.900Z,100727.17
2018-08-30T05:55:03.721Z,100725.36
2018-08-30T05:57:34.347Z,100735.46
2018-08-30T06:00:04.830Z,100731.91
2018-08-30T06:02:35.108Z,100729.78
2018-08-30T06:05:05.540Z,100732.47
2018-08-30T06:07:35.843Z,100733.01
2018-08-30T06:10:06.447Z,100732.09
2018-08-30T06:12:37.124Z,100739.22
2018-08-30T06:15:07.820Z,100748.99
2018-08-30T06:17:38.349Z,100747.75
2018-08-30T06:20:08.941Z,100750.88
2018-08-30T06:22:39.312Z,100743.77
2018-08-30T06:25:09.769Z,100748.99
2018-08-30T06:27:40.241Z,100749.46
2018-08-30T06:30:10.877Z,100751.94
2018-08-30T06:32:41.280Z,100748.63
2018-08-30T06:35:11.531Z,100746.85
2018-08-30T06:37:42.168Z,100752.39
2018-08-30T06:40:12.655Z,100758.23
2018-08-30T06:42:43.131Z,100753.59
2018-08-30T06:45:13.680Z,100756.66
2018-08-30T06:47:44.184Z,100762.14
2018-08-30T06:50:14.659Z,100770.36
2018-08-30T06:52:45.026Z,100771.03
2018-08-30T06:55:15.491Z,100774.61
2018-08-30T06:57:45.788Z,100773.39
2018-08-30T07:00:16.277Z,100776.47
2018-08-30T07:02:46.859Z,100784.95
2018-08-30T07:05:17.595Z,100787.95
2018-08-30T07:07:48.056Z,100794.23
2018-08-30T07:10:18.585Z,100792.30
2018-08-30T07:12:48.906Z,100801.42
2018-08-30T07:15:19.495Z,100800.78
2018-08-30T07:17:49.992Z,100811.74
2018-08-30T07:20:20.487Z,100807.63
2018-08-30T07:22:50.974Z,100811.23
2018-08-30T07:25:21.447Z,100811.58
2018-08-30T07:27:51.798Z,100817.58
2018-08-30T07:30:22.213Z,100819.13
2018-08-30T07:32:52.767Z,100817.58
2018-08-30T07:35:23.279Z,100823.28
2018-08-30T07:37:53.675Z,100828.32
2018-08-30T07:40:23.999Z,100833.39
2018-08-30T07:42:54.382Z,100835.52
2018-08-30T07:45:24.692Z,100837.23
2018-08-30T07:47:55.044Z,100841.05
2018-08-30T07:50:25.427Z,100840.08
2018-08-30T07:52:56.475Z,100848.51
2018-08-30T07:55:27.440Z,100848.82
2018-08-30T07:57:57.820Z,100848.17
2018-08-30T08:00:28.311Z,100861.18
2018-08-30T08:02:58.630Z,100855.94
2018-08-30T08:05:29.072Z,100857.39
2018-08-30T08:07:59.312Z,100863.72
2018-08-30T08:10:29.808Z,100866.42
2018-08-30T08:13:00.185Z,100864.88
2018-08-30T08:15:30.608Z,100868.13
2018-08-30T08:18:01.040Z,100869.25
2018-08-30T08:20:31.657Z,100868.48
2018-08-30T08:23:02.109Z,100873.41
2018-08-30T08:25:32.509Z,100873.67
2018-08-30T08:28:02.977Z,100874.08
2018-08-30T08:30:33.572Z,100875.52
2018-08-30T08:33:03.831Z,100871.91
2018-08-30T08:35:34.308Z,100870.89
2018-08-30T08:38:04.768Z,100875.73
2018-08-30T08:40:35.192Z,100881.27
2018-08-30T08:43:06.835Z,100883.63
2018-08-30T08:45:37.308Z,100884.06
2018-08-30T08:48:07.844Z,100888.00
2018-08-30T08:50:38.452Z,100891.36
2018-08-30T08:53:09.108Z,100893.50
2018-08-30T08:55:39.455Z,100902.30
2018-08-30T08:58:09.808Z,100893.93
2018-08-30T09:00:40.312Z,100899.92
2018-08-30T09:03:10.895Z,100898.75
2018-08-30T09:05:41.369Z,100904.39
2018-08-30T09:08:11.878Z,100904.36
2018-08-30T09:10:42.435Z,100904.36
2018-08-30T09:13:12.998Z,100906.53
2018-08-30T09:15:43.293Z,100904.15
2018-08-30T09:18:13.795Z,100904.74
2018-08-30T09:20:44.237Z,100915.59
2018-08-30T09:23:14.728Z,100911.89
2018-08-30T09:25:45.148Z,100914.41
2018-08-30T09:28:15.500Z,100916.30
2018-08-30T09:30:45.873Z,100919.42
2018-08-30T09:33:16.180Z,100924.79
2018-08-30T09:35:46.741Z,100924.91
2018-08-30T09:38:17.386Z,100921.21
2018-08-30T09:40:47.647Z,100920.03
2018-08-30T09:43:18.053Z,100923.23
2018-08-30T09:45:48.515Z,100921.31
2018-08-30T09:48:19.092Z,100919.42
2018-08-30T09:50:49.387Z,100921.19
2018-08-30T09:53:19.999Z,100925.48
2018-08-30T09:55:50.414Z,100925.65
2018-08-30T09:58:20.895Z,100925.36
2018-08-30T10:00:56.379Z,100933.81
2018-08-30T10:03:26.771Z,100925.98
2018-08-30T10:05:57.343Z,100927.31
2018-08-30T10:08:28.345Z,100925.48
2018-08-30T10:10:58.999Z,100927.52
2018-08-30T10:13:29.521Z,100930.07
2018-08-30T10:15:59.836Z,100921.20
2018-08-30T10:18:30.180Z,100922.11
2018-08-30T10:21:00.419Z,100926.88
2018-08-30T10:23:30.809Z,100930.09
2018-08-30T10:26:01.377Z,100929.45
2018-08-30T10:28:31.884Z,100933.97
2018-08-30T10:31:02.132Z,100933.27
2018-08-30T10:33:32.415Z,100928.17
2018-08-30T10:36:02.925Z,100929.59
2018-08-30T10:38:33.383Z,100929.75
2018-08-30T10:41:03.873Z,100925.38
2018-08-30T10:43:34.289Z,100933.49
2018-08-30T10:46:04.524Z,100933.27
2018-08-30T10:48:34.803Z,100938.05
2018-08-30T10:51:05.401Z,100942.81
2018-08-30T10:53:36.080Z,100947.70
2018-08-30T10:56:06.745Z,100948.30
2018-08-30T10:58:37.364Z,100952.86
2018-08-30T11:01:08.719Z,100944.48
2018-08-30T11:03:40.047Z,100945.34
2018-08-30T11:06:10.172Z,100961.00
2018-08-30T11:08:40.744Z,100955.14
2018-08-30T11:11:11.268Z,100962.36
2018-08-30T11:13:42.643Z,100957.80
2018-08-30T11:16:13.045Z,100953.80
2018-08-30T11:18:43.688Z,100958.64
2018-08-30T11:21:14.255Z,100957.86
2018-08-30T11:23:44.648Z,100961.94
2018-08-30T11:26:15.068Z,100961.70
2018-08-30T11:28:45.535Z,100972.09
2018-08-30T11:31:15.840Z,100968.25
2018-08-30T11:33:46.199Z,100969.57
2018-08-30T11:36:16.595Z,100969.45
2018-08-30T11:38:47.121Z,100974.36
2018-08-30T11:41:17.503Z,100977.08
2018-08-30T11:43:48.083Z,100980.64
2018-08-30T11:46:18.532Z,100990.70
2018-08-30T11:48:48.854Z,100997.83
2018-08-30T11:51:19.269Z,100994.38
2018-08-30T11:53:50.390Z,100999.44
2018-08-30T11:56:20.849Z,100993.31
2018-08-30T11:58:51.301Z,100997.44
2018-08-30T12:01:21.725Z,101008.44
2018-08-30T12:03:52.400Z,101000.05
2018-08-30T12:06:22.940Z,100999.12
2018-08-30T12:08:53.487Z,101001.47
2018-08-30T12:11:23.798Z,101009.87
2018-08-30T12:13:54.227Z,101009.30
2018-08-30T12:16:24.631Z,101021.48
2018-08-30T12:18:55.337Z,101010.83
2018-08-30T12:21:25.925Z,101011.34
2018-08-30T12:23:56.361Z,101006.81
2018-08-30T12:26:27.076Z,101007.91
2018-08-30T12:28:57.599Z,101002.18
2018-08-30T12:31:28.151Z,101008.41
2018-08-30T12:33:58.503Z,101006.01
2018-08-30T12:36:28.955Z,101008.82
2018-08-30T12:38:59.425Z,101005.98
2018-08-30T12:41:29.634Z,101008.73
2018-08-30T12:44:01.231Z,101003.98
2018-08-30T12:46:31.586Z,101004.58
2018-08-30T12:49:02.084Z,101009.24
2018-08-30T12:51:32.715Z,101003.87
2018-08-30T12:54:03.410Z,101000.66
2018-08-30T12:56:33.677Z,101005.88
2018-08-30T12:59:09.233Z,101011.50
2018-08-30T13:01:40.010Z,101008.82
2018-08-30T13:04:10.568Z,101013.49
2018-08-30T13:06:50.033Z,101016.92
2018-08-30T13:09:20.402Z,101019.55
2018-08-30T13:11:51.001Z,101022.02
2018-08-30T13:14:21.297Z,101025.47
2018-08-30T13:16:51.786Z,101026.04
2018-08-30T13:19:22.747Z,101028.43
2018-08-30T13:21:53.204Z,101036.33
2018-08-30T13:24:23.710Z,101038.09
2018-08-30T13:26:54.344Z,101030.13
2018-08-30T13:29:24.793Z,101042.27
2018-08-30T13:31:55.395Z,101046.77
2018-08-30T13:34:26.028Z,101054.87
2018-08-30T13:36:56.559Z,101048.45
2018-08-30T13:39:26.953Z,101053.39
2018-08-30T13:41:57.459Z,101056.39
2018-08-30T13:44:27.890Z,101055.56
2018-08-30T13:46:58.143Z,101054.41
2018-08-30T13:49:28.545Z,101052.19
2018-08-30T13:51:59.357Z,101053.51
2018-08-30T13:54:29.747Z,101057.61
2018-08-30T13:57:00.121Z,101059.53
2018-08-30T13:59:30.827Z,101056.70
2018-08-30T14:02:00.912Z,101072.58
2018-08-30T14:04:31.282Z,101067.59
2018-08-30T14:07:02.517Z,101082.86
2018-08-30T14:09:32.684Z,101081.60
2018-08-30T14:12:03.598Z,101077.53
2018-08-30T14:14:33.807Z,101079.29
2018-08-30T14:17:03.946Z,101090.69
2018-08-30T14:19:34.333Z,101088.23
2018-08-30T14:22:04.793Z,101088.91
2018-08-30T14:24:35.373Z,101084.45
2018-08-30T14:27:06.101Z,101086.39
2018-08-30T14:29:37.088Z,101094.80
2018-08-30T14:32:07.919Z,101092.69
2018-08-30T14:34:38.263Z,101099.17
2018-08-30T14:37:08.619Z,101099.72
2018-08-30T14:39:39.019Z,101101.48
2018-08-30T14:42:09.587Z,101104.28
2018-08-30T14:44:39.987Z,101102.00
2018-08-30T14:47:10.620Z,101106.06
2018-08-30T14:49:41.529Z,101106.98
2018-08-30T14:52:12.210Z,101107.10
2018-08-30T14:54:42.701Z,101121.08
2018-08-30T14:57:13.177Z,101123.83
2018-08-30T14:59:43.692Z,101125.97
2018-08-30T15:02:13.820Z,101124.43
2018-08-30T15:04:45.251Z,101123.20
2018-08-30T15:07:15.844Z,101131.46
2018-08-30T15:09:47.706Z,101132.06
2018-08-30T15:12:18.127Z,101140.36
2018-08-30T15:14:48.801Z,101144.66
2018-08-30T15:17:19.961Z,101141.19
2018-08-30T15:19:50.397Z,101147.30
2018-08-30T15:22:21.064Z,101150.39
2018-08-30T15:24:51.625Z,101148.45
2018-08-30T15:27:22.213Z,101139.38
2018-08-30T15:29:52.612Z,101152.58
2018-08-30T15:32:23.072Z,101147.69
2018-08-30T15:34:53.408Z,101158.26
2018-08-30T15:37:23.796Z,101162.69
2018-08-30T15:39:54.288Z,101163.45
2018-08-30T15:42:24.744Z,101169.78
2018-08-30T15:44:55.262Z,101165.31
2018-08-30T15:47:25.870Z,101171.94
2018-08-30T15:49:56.390Z,101171.45
2018-08-30T15:52:26.956Z,101177.17
2018-08-30T15:54:57.463Z,101177.57
2018-08-30T15:57:28.232Z,101173.98
2018-08-30T15:59:58.703Z,101178.53
2018-08-30T16:02:29.082Z,101182.70
2018-08-30T16:04:59.529Z,101187.62
2018-08-30T16:07:30.038Z,101183.89
2018-08-30T16:10:00.547Z,101184.59
2018-08-30T16:12:31.096Z,101181.02
2018-08-30T16:15:01.616Z,101191.17
2018-08-30T16:17:34.954Z,101182.91
2018-08-30T16:20:05.643Z,101188.29
2018-08-30T16:23:41.667Z,101194.84
2018-08-30T16:26:12.253Z,101188.89
2018-08-30T16:28:43.453Z,101196.24
2018-08-30T16:31:13.993Z,101195.11
2018-08-30T16:33:44.210Z,101199.56
2018-08-30T16:36:14.707Z,101204.44
2018-08-30T16:38:45.448Z,101199.30
2018-08-30T16:41:15.848Z,101200.96
2018-08-30T16:43:46.392Z,101203.72
2018-08-30T16:46:16.888Z,101212.14
2018-08-30T16:48:47.479Z,101207.28
2018-08-30T16:51:17.957Z,101213.36
2018-08-30T16:53:48.652Z,101209.05
2018-08-30T16:56:19.230Z,101211.11
2018-08-30T16:58:49.634Z,101220.63
2018-08-30T17:01:19.997Z,101232.95
2018-08-30T17:03:50.552Z,101229.07
2018-08-30T17:06:21.159Z,101226.34
2018-08-30T17:08:51.809Z,101225.91
2018-08-30T17:11:22.351Z,101235.73
2018-08-30T17:13:52.939Z,101236.10
2018-08-30T17:16:23.663Z,101239.75
2018-08-30T17:18:58.477Z,101243.69
2018-08-30T17:21:29.074Z,101250.27
2018-08-30T17:23:59.593Z,101248.74
2018-08-30T17:26:30.127Z,101250.23
2018-08-30T17:29:01.224Z,101253.84
2018-08-30T17:31:31.784Z,101258.11
2018-08-30T17:34:02.375Z,101256.19
2018-08-30T17:36:33.020Z,101254.95
2018-08-30T17:39:03.660Z,101266.42
2018-08-30T17:41:34.336Z,101260.80
2018-08-30T17:44:04.842Z,101264.42
2018-08-30T17:46:35.463Z,101265.73
2018-08-30T17:49:06.016Z,101274.11
2018-08-30T17:51:36.684Z,101277.52
2018-08-30T17:54:07.448Z,101279.81
2018-08-30T17:56:38.077Z,101281.66
2018-08-30T17:59:08.941Z,101279.59
2018-08-30T18:01:39.662Z,101285.77
2018-08-30T18:04:10.407Z,101284.02
2018-08-30T18:06:41.055Z,101286.85
2018-08-30T18:09:11.842Z,101292.13
2018-08-30T18:11:42.391Z,101297.55
2018-08-30T18:14:13.143Z,101304.52
2018-08-30T18:16:43.877Z,101304.91
2018-08-30T18:19:14.511Z,101312.73
2018-08-30T18:21:45.146Z,101313.41
2018-08-30T18:24:15.918Z,101322.14
2018-08-30T18:26:46.708Z,101321.95
2018-08-30T18:29:17.428Z,101320.78
2018-08-30T18:31:48.008Z,101321.98
2018-08-30T18:34:18.663Z,101326.56
2018-08-30T18:36:49.356Z,101330.25
2018-08-30T18:39:20.136Z,101330.06
2018-08-30T18:41:51.077Z,101334.37
2018-08-30T18:44:22.136Z,101337.19
2018-08-30T18:46:53.162Z,101341.30
2018-08-30T18:49:24.518Z,101344.75
2018-08-30T18:51:55.490Z,101342.90
2018-08-30T18:54:26.580Z,101343.53
2018-08-30T18:56:57.649Z,101352.53
2018-08-30T18:59:28.861Z,101349.72
2018-08-30T19:02:00.181Z,101355.12
2018-08-30T19:04:31.332Z,101360.74
2018-08-30T19:07:02.744Z,101370.59
2018-08-30T19:09:33.974Z,101368.40
2018-08-30T19:12:05.039Z,101379.37
2018-08-30T19:14:36.119Z,101384.22
2018-08-30T19:17:13.257Z,101382.42
2018-08-30T19:19:44.105Z,101382.50
2018-08-30T19:22:15.394Z,101380.52
2018-08-30T19:24:53.389Z,101387.32
2018-08-30T19:27:24.919Z,101390.98
2018-08-30T19:30:00.933Z,101394.58
2018-08-30T19:32:32.250Z,101397.98
2018-08-30T19:35:08.024Z,101399.11
2018-08-30T19:37:39.181Z,101395.87
2018-08-30T19:40:13.954Z,101403.27
2018-08-30T19:42:44.656Z,101405.08
2018-08-30T19:45:15.291Z,101402.55
2018-08-30T19:47:45.872Z,101401.95
2018-08-30T19:50:16.496Z,101407.05
2018-08-30T19:52:47.037Z,101412.67
2018-08-30T19:55:17.699Z,101413.01
2018-08-30T19:57:48.379Z,101417.88
2018-08-30T20:00:18.965Z,101412.83
2018-08-30T20:02:49.425Z,101419.22
2018-08-30T20:05:20.212Z,101423.77
2018-08-30T20:07:50.699Z,101419.02
2018-08-30T20:10:21.455Z,101417.47
2018-08-30T20:12:51.769Z,101423.99
2018-08-30T20:15:22.456Z,101421.99
2018-08-30T20:17:53.913Z,101428.60
2018-08-30T20:20:24.532Z,101425.52
2018-08-30T20:22:55.032Z,101420.37
2018-08-30T20:25:25.709Z,101429.39
2018-08-30T20:27:56.229Z,101423.25
2018-08-30T20:30:26.867Z,101421.42
2018-08-30T20:32:57.513Z,101433.06
2018-08-30T20:35:28.122Z,101434.45
2018-08-30T20:37:58.684Z,101439.89
2018-08-30T20:40:29.459Z,101442.60
2018-08-30T20:43:00.288Z,101439.36
2018-08-30T20:45:30.761Z,101440.13
2018-08-30T20:48:01.204Z,101450.56
2018-08-30T20:50:32.329Z,101449.31
2018-08-30T20:53:02.752Z,101447.30
2018-08-30T20:55:33.100Z,101446.78
2018-08-30T20:58:03.592Z,101446.63
2018-08-30T21:00:34.095Z,101447.22
2018-08-30T21:03:04.769Z,101438.25
2018-08-30T21:05:35.285Z,101449.67
2018-08-30T21:08:05.744Z,101451.84
2018-08-30T21:10:36.296Z,101447.06
2018-08-30T21:13:06.822Z,101447.02
2018-08-30T21:15:37.307Z,101440.11
2018-08-30T21:18:07.805Z,101447.89
2018-08-30T21:20:39.010Z,101448.09
2018-08-30T21:23:09.473Z,101451.05
2018-08-30T21:25:40.052Z,101448.36
2018-08-30T21:28:10.523Z,101447.69
2018-08-30T21:30:41.035Z,101448.75
2018-08-30T21:33:11.363Z,101454.28
2018-08-30T21:35:41.832Z,101457.05
2018-08-30T21:38:12.221Z,101463.09
2018-08-30T21:40:42.626Z,101467.47
2018-08-30T21:43:13.292Z,101475.05
2018-08-30T21:45:43.664Z,101476.05
2018-08-30T21:48:15.084Z,101476.94
2018-08-30T21:50:45.501Z,101477.84
2018-08-30T21:53:15.984Z,101475.06
2018-08-30T21:55:46.862Z,101473.01
2018-08-30T21:58:17.256Z,101470.18
2018-08-30T22:00:48.062Z,101471.41
2018-08-30T22:03:18.503Z,101465.52
2018-08-30T22:05:48.817Z,101468.22
2018-08-30T22:08:19.160Z,101471.70
2018-08-30T22:10:49.564Z,101465.78
2018-08-30T22:13:20.147Z,101466.57
2018-08-30T22:15:50.600Z,101465.05
2018-08-30T22:18:20.794Z,101464.23
2018-08-30T22:20:51.296Z,101470.05
2018-08-30T22:23:21.825Z,101468.83
2018-08-30T22:25:52.524Z,101468.42
2018-08-30T22:28:22.906Z,101467.70
2018-08-30T22:30:53.363Z,101467.16
2018-08-30T22:33:23.815Z,101462.85
2018-08-30T22:35:54.320Z,101466.63
2018-08-30T22:38:24.619Z,101464.56
2018-08-30T22:40:55.739Z,101469.19
2018-08-30T22:43:28.632Z,101474.61
2018-08-30T22:45:59.139Z,101470.38
2018-08-30T22:48:29.640Z,101474.97
2018-08-30T22:50:59.872Z,101471.81
2018-08-30T22:53:30.168Z,101470.05
2018-08-30T22:56:00.643Z,101474.84
2018-08-30T22:58:31.058Z,101472.91
2018-08-30T23:01:01.278Z,101472.14
2018-08-30T23:03:31.578Z,101471.09
2018-08-30T23:06:01.890Z,101471.28
2018-08-30T23:08:32.379Z,101463.47
2018-08-30T23:11:02.879Z,101461.08
2018-08-30T23:13:33.215Z,101458.02
2018-08-30T23:16:03.653Z,101465.70
2018-08-30T23:18:34.092Z,101463.63
2018-08-30T23:21:05.308Z,101454.04
2018-08-30T23:23:35.727Z,101457.83
2018-08-30T23:26:06.201Z,101463.49
2018-08-30T23:28:36.408Z,101467.53
2018-08-30T23:31:07.040Z,101463.02
2018-08-30T23:33:37.567Z,101463.28
2018-08-30T23:36:08.253Z,101467.31
2018-08-30T23:38:38.636Z,101464.39
2018-08-30T23:41:09.212Z,101467.34
2018-08-30T23:43:39.711Z,101469.08
2018-08-30T23:46:10.177Z,101472.64
2018-08-30T23:48:40.460Z,101464.37
2018-08-30T23:51:10.951Z,101466.03
2018-08-30T23:53:41.350Z,101470.23
2018-08-30T23:56:11.783Z,101470.70
2018-08-30T23:58:59.102Z,101472.83
